Repubbli Del Brasile — IBZB — position and weather

sailwx.info

Track history (hours):
 
Tides and Currents Weather Stations Pressure Air Temp Water Temp Dewpoint Dewpoint Depression Visibility Wind Speed Wind Dir Waves Ship Positions

Repubbli Del Brasile

Last reported at 2016-Jul-30 14:33 UTC. Time now 2016-Jul-30 14:59 UTC.
Position N 31°09' W 011°15'.

Length 209 m; draft 9.8 m.

Type: Ship (hazmat cat B). MMSI: 247310000.

Date/timePositionNaut miles runAvg speedWind from/ knotsBaromVisibWave heightAir tempDewpointWater temp
2016-Jul-30 14:33N 31°09' W 011°15'1615.5
2016-Jul-30 13:33N 31°21' W 011°03'1615.8
2016-Jul-30 12:34N 31°33' W 010°52'1815.8
2016-Jul-30 11:25N 31°47' W 010°38'1615.4
2016-Jul-30 10:23N 31°59' W 010°25'2815.4
2016-Jul-30 08:33N 32°20' W 010°03'311 6.1
2016-Jul-28 05:26N 35°57' W 005°34'1112.4
2016-Jul-28 04:34N 36°02' W 005°22'19114.2
2016-Jul-27 15:05N 36°35' W 001°28'2414.5
2016-Jul-27 13:25N 36°41' W 000°59'4614.2
2016-Jul-27 10:10N 36°53' W 000°04'914.3
2016-Jul-27 09:33N 36°55' E 000°07'1514.7
2016-Jul-27 08:32N 36°59' E 000°25'1514.8
2016-Jul-27 07:31N 37°03' E 000°43'1414.6
2016-Jul-27 06:33N 37°07' E 001°00'1515.3
2016-Jul-27 05:33N 37°11' E 001°19'1515.4
2016-Jul-27 04:33N 37°15' E 001°38'1615.7
2016-Jul-27 03:33N 37°19' E 001°57'4815.2
2016-Jul-27 00:22N 37°32' E 002°56'1415.1
2016-Jul-26 23:25N 37°36' E 003°13'3114.8
2016-Jul-26 21:21N 37°44' E 003°50'24015.2
2016-Jul-26 05:29N 38°47' E 008°45'1414.6
2016-Jul-26 04:32N 38°51' E 009°02'1515.3
2016-Jul-26 03:33N 38°55' E 009°21'  
2016-Jul-23 08:12N 40°34' E 014°37'1115.4
2016-Jul-23 07:29N 40°32' E 014°23'1414.6
2016-Jul-23 06:33N 40°31' E 014°05'3115.4
2016-Jul-23 04:34N 40°40' E 013°26'1515.2
2016-Jul-23 03:33N 40°44' E 013°07'1515.0
2016-Jul-23 02:33N 40°49' E 012°48'1514.7
2016-Jul-23 01:33N 40°56' E 012°32'1514.9
2016-Jul-23 00:33N 41°07' E 012°18'1515.0
2016-Jul-22 23:33N 41°17' E 012°03'1515.1
2016-Jul-22 22:33N 41°28' E 011°49'1515.0
2016-Jul-22 21:33N 41°38' E 011°35'1515.0
2016-Jul-22 20:33N 41°49' E 011°21'1514.8
2016-Jul-22 19:33N 41°60' E 011°07'1514.6
2016-Jul-22 18:33N 42°09' E 010°52'1515.1
2016-Jul-22 17:33N 42°20' E 010°37'3014.9
2016-Jul-22 15:31N 42°41' E 010°08'1313.9
2016-Jul-22 14:33N 42°53' E 009°60'1514.9
2016-Jul-22 13:33N 43°08' E 010°03'1515.4
2016-Jul-22 12:33N 43°23' E 010°07'1212.1
2016-Jul-22 11:33N 43°32' E 010°17'2 1.9
2016-Jul-22 10:33N 43°34' E 010°18'0 0.0
2016-Jul-22 09:30N 43°34' E 010°18'0 0.0
2016-Jul-22 08:23N 43°34' E 010°18'0 0.0
2016-Jul-22 07:29N 43°34' E 010°18'0 0.0
2016-Jul-22 04:34N 43°34' E 010°18'0 0.0
2016-Jul-22 03:33N 43°34' E 010°18'0 0.0
2016-Jul-22 02:33N 43°34' E 010°18'0 0.0
2016-Jul-22 01:32N 43°34' E 010°18'0 0.0
2016-Jul-22 00:32N 43°34' E 010°18'0 0.0
2016-Jul-21 23:31N 43°34' E 010°18'0 0.0
2016-Jul-21 22:22N 43°34' E 010°18'0 0.0
2016-Jul-21 21:33N 43°34' E 010°18'0 0.0
2016-Jul-21 20:33N 43°34' E 010°18'0 0.0
2016-Jul-21 19:33N 43°34' E 010°18'0 0.0
2016-Jul-21 18:29N 43°34' E 010°18'0 0.0
2016-Jul-21 17:32N 43°34' E 010°18'0 0.0
2016-Jul-21 16:31N 43°34' E 010°18'0 0.0
2016-Jul-21 15:31N 43°34' E 010°18'0 0.0
2016-Jul-21 14:33N 43°34' E 010°18'0 0.0
2016-Jul-21 13:33N 43°34' E 010°18'0 0.0
2016-Jul-21 12:33N 43°34' E 010°18'0 0.0
2016-Jul-21 11:32N 43°34' E 010°18'0 0.0
2016-Jul-21 10:32N 43°34' E 010°18'0 0.0
2016-Jul-21 09:31N 43°34' E 010°18'0 0.0
2016-Jul-21 08:31N 43°34' E 010°18'0 0.0
2016-Jul-21 07:30N 43°34' E 010°18'0 0.0
2016-Jul-21 06:33N 43°34' E 010°18'2 1.5
2016-Jul-21 05:33N 43°33' E 010°17'4 3.9
2016-Jul-21 04:33N 43°29' E 010°15'1 0.7
2016-Jul-21 03:33N 43°29' E 010°15'5 5.3
2016-Jul-21 02:34N 43°29' E 010°08'1413.9
2016-Jul-21 01:34N 43°34' E 009°50'1514.6
2016-Jul-21 00:34N 43°46' E 009°38'1313.0
2016-Jul-20 23:34N 43°47' E 009°20'1414.3
2016-Jul-20 22:34N 43°45' E 009°00'3 2.5
2016-Jul-20 21:34N 43°44' E 008°57'0 0.2
2016-Jul-20 20:34N 43°44' E 008°57'0 0.4
2016-Jul-20 19:34N 43°44' E 008°57'1111.4
2016-Jul-20 18:33N 43°55' E 008°57'1514.6
2016-Jul-20 17:33N 44°10' E 008°56'1313.5
2016-Jul-20 16:33N 44°23' E 008°53'1 0.7
2016-Jul-20 15:33N 44°23' E 008°54'1 0.7
2016-Jul-20 14:33N 44°22' E 008°55'  
Track history (hours):
 
Tides and Currents Weather Stations Pressure Air Temp Water Temp Dewpoint Dewpoint Depression Visibility Wind Speed Wind Dir Waves Ship Positions

Repubbli Del Brasile

Last reported at 2016-Jul-30 14:33 UTC. Time now 2016-Jul-30 14:59 UTC.
Position N 31°09' W 011°15'.

Length 209 m; draft 9.8 m.

Type: Ship (hazmat cat B). MMSI: 247310000.

Date/timePositionNaut miles runAvg speedWind from/ knotsBaromVisibWave heightAir tempDewpointWater temp
2016-Jul-30 14:33N 31°09' W 011°15'1615.5
2016-Jul-30 13:33N 31°21' W 011°03'1615.8
2016-Jul-30 12:34N 31°33' W 010°52'1815.8
2016-Jul-30 11:25N 31°47' W 010°38'1615.4
2016-Jul-30 10:23N 31°59' W 010°25'2815.4
2016-Jul-30 08:33N 32°20' W 010°03'311 6.1
2016-Jul-28 05:26N 35°57' W 005°34'1112.4
2016-Jul-28 04:34N 36°02' W 005°22'19114.2
2016-Jul-27 15:05N 36°35' W 001°28'2414.5
2016-Jul-27 13:25N 36°41' W 000°59'4614.2
2016-Jul-27 10:10N 36°53' W 000°04'914.3
2016-Jul-27 09:33N 36°55' E 000°07'1514.7
2016-Jul-27 08:32N 36°59' E 000°25'1514.8
2016-Jul-27 07:31N 37°03' E 000°43'1414.6
2016-Jul-27 06:33N 37°07' E 001°00'1515.3
2016-Jul-27 05:33N 37°11' E 001°19'1515.4
2016-Jul-27 04:33N 37°15' E 001°38'1615.7
2016-Jul-27 03:33N 37°19' E 001°57'4815.2
2016-Jul-27 00:22N 37°32' E 002°56'1415.1
2016-Jul-26 23:25N 37°36' E 003°13'3114.8
2016-Jul-26 21:21N 37°44' E 003°50'24015.2
2016-Jul-26 05:29N 38°47' E 008°45'1414.6
2016-Jul-26 04:32N 38°51' E 009°02'1515.3
2016-Jul-26 03:33N 38°55' E 009°21'  
2016-Jul-23 08:12N 40°34' E 014°37'1115.4
2016-Jul-23 07:29N 40°32' E 014°23'1414.6
2016-Jul-23 06:33N 40°31' E 014°05'3115.4
2016-Jul-23 04:34N 40°40' E 013°26'1515.2
2016-Jul-23 03:33N 40°44' E 013°07'1515.0
2016-Jul-23 02:33N 40°49' E 012°48'1514.7
2016-Jul-23 01:33N 40°56' E 012°32'1514.9
2016-Jul-23 00:33N 41°07' E 012°18'1515.0
2016-Jul-22 23:33N 41°17' E 012°03'1515.1
2016-Jul-22 22:33N 41°28' E 011°49'1515.0
2016-Jul-22 21:33N 41°38' E 011°35'1515.0
2016-Jul-22 20:33N 41°49' E 011°21'1514.8
2016-Jul-22 19:33N 41°60' E 011°07'1514.6
2016-Jul-22 18:33N 42°09' E 010°52'1515.1
2016-Jul-22 17:33N 42°20' E 010°37'3014.9
2016-Jul-22 15:31N 42°41' E 010°08'1313.9
2016-Jul-22 14:33N 42°53' E 009°60'1514.9
2016-Jul-22 13:33N 43°08' E 010°03'1515.4
2016-Jul-22 12:33N 43°23' E 010°07'1212.1
2016-Jul-22 11:33N 43°32' E 010°17'2 1.9
2016-Jul-22 10:33N 43°34' E 010°18'0 0.0
2016-Jul-22 09:30N 43°34' E 010°18'0 0.0
2016-Jul-22 08:23N 43°34' E 010°18'0 0.0
2016-Jul-22 07:29N 43°34' E 010°18'0 0.0
2016-Jul-22 04:34N 43°34' E 010°18'0 0.0
2016-Jul-22 03:33N 43°34' E 010°18'0 0.0
2016-Jul-22 02:33N 43°34' E 010°18'0 0.0
2016-Jul-22 01:32N 43°34' E 010°18'0 0.0
2016-Jul-22 00:32N 43°34' E 010°18'0 0.0
2016-Jul-21 23:31N 43°34' E 010°18'0 0.0
2016-Jul-21 22:22N 43°34' E 010°18'0 0.0
2016-Jul-21 21:33N 43°34' E 010°18'0 0.0
2016-Jul-21 20:33N 43°34' E 010°18'0 0.0
2016-Jul-21 19:33N 43°34' E 010°18'0 0.0
2016-Jul-21 18:29N 43°34' E 010°18'0 0.0
2016-Jul-21 17:32N 43°34' E 010°18'0 0.0
2016-Jul-21 16:31N 43°34' E 010°18'0 0.0
2016-Jul-21 15:31N 43°34' E 010°18'0 0.0
2016-Jul-21 14:33N 43°34' E 010°18'0 0.0
2016-Jul-21 13:33N 43°34' E 010°18'0 0.0
2016-Jul-21 12:33N 43°34' E 010°18'0 0.0
2016-Jul-21 11:32N 43°34' E 010°18'0 0.0
2016-Jul-21 10:32N 43°34' E 010°18'0 0.0
2016-Jul-21 09:31N 43°34' E 010°18'0 0.0
2016-Jul-21 08:31N 43°34' E 010°18'0 0.0
2016-Jul-21 07:30N 43°34' E 010°18'0 0.0
2016-Jul-21 06:33N 43°34' E 010°18'2 1.5
2016-Jul-21 05:33N 43°33' E 010°17'4 3.9
2016-Jul-21 04:33N 43°29' E 010°15'1 0.7
2016-Jul-21 03:33N 43°29' E 010°15'5 5.3
2016-Jul-21 02:34N 43°29' E 010°08'1413.9
2016-Jul-21 01:34N 43°34' E 009°50'1514.6
2016-Jul-21 00:34N 43°46' E 009°38'1313.0
2016-Jul-20 23:34N 43°47' E 009°20'1414.3
2016-Jul-20 22:34N 43°45' E 009°00'3 2.5
2016-Jul-20 21:34N 43°44' E 008°57'0 0.2
2016-Jul-20 20:34N 43°44' E 008°57'0 0.4
2016-Jul-20 19:34N 43°44' E 008°57'1111.4
2016-Jul-20 18:33N 43°55' E 008°57'1514.6
2016-Jul-20 17:33N 44°10' E 008°56'1313.5
2016-Jul-20 16:33N 44°23' E 008°53'1 0.7
2016-Jul-20 15:33N 44°23' E 008°54'1 0.7
2016-Jul-20 14:33N 44°22' E 008°55'  

Dump ship's entire track history